sensor_id;sensor_type;location;lat;lon;timestamp;P1;durP1;ratioP1;P2;durP2;ratioP2
19343;SDS011;9808;52.402;16.678;2022-12-31T00:00:45;12.83;;;5.50;;
19343;SDS011;9808;52.402;16.678;2022-12-31T00:03:13;12.83;;;5.00;;
19343;SDS011;9808;52.402;16.678;2022-12-31T00:05:40;12.77;;;5.50;;
19343;SDS011;9808;52.402;16.678;2022-12-31T00:08:07;11.80;;;5.40;;
19343;SDS011;9808;52.402;16.678;2022-12-31T00:10:35;11.17;;;5.60;;
19343;SDS011;9808;52.402;16.678;2022-12-31T00:13:07;10.27;;;4.80;;
19343;SDS011;9808;52.402;16.678;2022-12-31T00:15:35;11.17;;;4.87;;
19343;SDS011;9808;52.402;16.678;2022-12-31T00:18:02;10.90;;;4.87;;
19343;SDS011;9808;52.402;16.678;2022-12-31T00:20:29;11.80;;;5.10;;
19343;SDS011;9808;52.402;16.678;2022-12-31T00:22:57;9.77;;;4.33;;
19343;SDS011;9808;52.402;16.678;2022-12-31T00:25:24;11.30;;;5.17;;
19343;SDS011;9808;52.402;16.678;2022-12-31T00:27:51;12.60;;;4.50;;
19343;SDS011;9808;52.402;16.678;2022-12-31T00:30:19;12.57;;;5.03;;
19343;SDS011;9808;52.402;16.678;2022-12-31T00:32:46;10.53;;;4.70;;
19343;SDS011;9808;52.402;16.678;2022-12-31T00:35:14;10.80;;;5.00;;
19343;SDS011;9808;52.402;16.678;2022-12-31T00:37:41;9.77;;;4.70;;
19343;SDS011;9808;52.402;16.678;2022-12-31T00:40:08;11.53;;;5.60;;
19343;SDS011;9808;52.402;16.678;2022-12-31T00:42:35;13.80;;;5.20;;
19343;SDS011;9808;52.402;16.678;2022-12-31T00:45:03;11.70;;;4.73;;
19343;SDS011;9808;52.402;16.678;2022-12-31T00:47:30;10.10;;;4.80;;
19343;SDS011;9808;52.402;16.678;2022-12-31T00:49:57;12.07;;;5.23;;
19343;SDS011;9808;52.402;16.678;2022-12-31T00:52:24;11.70;;;4.57;;
19343;SDS011;9808;52.402;16.678;2022-12-31T00:54:52;10.03;;;4.47;;
19343;SDS011;9808;52.402;16.678;2022-12-31T00:57:20;12.80;;;4.40;;
19343;SDS011;9808;52.402;16.678;2022-12-31T00:59:47;11.53;;;4.73;;
19343;SDS011;9808;52.402;16.678;2022-12-31T01:02:14;10.63;;;4.43;;
19343;SDS011;9808;52.402;16.678;2022-12-31T01:04:42;9.20;;;4.20;;
19343;SDS011;9808;52.402;16.678;2022-12-31T01:07:09;9.10;;;4.13;;
19343;SDS011;9808;52.402;16.678;2022-12-31T01:09:36;12.50;;;4.63;;
19343;SDS011;9808;52.402;16.678;2022-12-31T01:12:04;11.03;;;4.37;;
19343;SDS011;9808;52.402;16.678;2022-12-31T01:14:31;8.30;;;3.77;;
19343;SDS011;9808;52.402;16.678;2022-12-31T01:16:59;8.23;;;4.03;;
19343;SDS011;9808;52.402;16.678;2022-12-31T01:19:27;12.27;;;4.27;;
19343;SDS011;9808;52.402;16.678;2022-12-31T01:21:54;8.77;;;4.30;;
19343;SDS011;9808;52.402;16.678;2022-12-31T01:24:22;10.23;;;4.20;;
19343;SDS011;9808;52.402;16.678;2022-12-31T01:26:49;12.43;;;4.33;;
19343;SDS011;9808;52.402;16.678;2022-12-31T01:29:17;10.93;;;3.63;;
19343;SDS011;9808;52.402;16.678;2022-12-31T01:31:44;10.03;;;4.30;;
19343;SDS011;9808;52.402;16.678;2022-12-31T01:34:11;8.63;;;3.93;;
19343;SDS011;9808;52.402;16.678;2022-12-31T01:36:39;8.17;;;3.87;;
19343;SDS011;9808;52.402;16.678;2022-12-31T01:39:10;9.03;;;3.90;;
19343;SDS011;9808;52.402;16.678;2022-12-31T01:41:40;8.67;;;3.90;;
19343;SDS011;9808;52.402;16.678;2022-12-31T01:46:39;9.53;;;3.50;;
19343;SDS011;9808;52.402;16.678;2022-12-31T01:49:09;11.73;;;4.33;;
19343;SDS011;9808;52.402;16.678;2022-12-31T01:51:37;9.00;;;3.90;;
19343;SDS011;9808;52.402;16.678;2022-12-31T01:54:06;10.37;;;3.87;;
19343;SDS011;9808;52.402;16.678;2022-12-31T01:56:35;9.73;;;4.17;;
19343;SDS011;9808;52.402;16.678;2022-12-31T01:59:04;9.83;;;4.07;;
19343;SDS011;9808;52.402;16.678;2022-12-31T02:01:32;9.80;;;4.33;;
19343;SDS011;9808;52.402;16.678;2022-12-31T02:04:03;9.53;;;4.20;;
19343;SDS011;9808;52.402;16.678;2022-12-31T02:06:33;11.37;;;4.20;;
19343;SDS011;9808;52.402;16.678;2022-12-31T02:09:02;8.27;;;4.00;;
19343;SDS011;9808;52.402;16.678;2022-12-31T02:11:31;9.60;;;4.60;;
19343;SDS011;9808;52.402;16.678;2022-12-31T02:14:07;11.23;;;4.10;;
19343;SDS011;9808;52.402;16.678;2022-12-31T02:22:08;8.33;;;4.00;;
19343;SDS011;9808;52.402;16.678;2022-12-31T02:24:50;11.33;;;4.33;;
19343;SDS011;9808;52.402;16.678;2022-12-31T02:32:46;9.60;;;4.17;;
19343;SDS011;9808;52.402;16.678;2022-12-31T02:38:03;11.33;;;3.97;;
19343;SDS011;9808;52.402;16.678;2022-12-31T02:40:32;8.33;;;4.27;;
19343;SDS011;9808;52.402;16.678;2022-12-31T02:43:00;10.90;;;4.90;;
19343;SDS011;9808;52.402;16.678;2022-12-31T02:45:29;7.87;;;3.87;;
19343;SDS011;9808;52.402;16.678;2022-12-31T02:48:04;9.50;;;4.17;;
19343;SDS011;9808;52.402;16.678;2022-12-31T02:55:51;11.03;;;3.90;;
19343;SDS011;9808;52.402;16.678;2022-12-31T02:58:24;8.10;;;3.73;;
19343;SDS011;9808;52.402;16.678;2022-12-31T03:01:14;8.60;;;4.20;;
19343;SDS011;9808;52.402;16.678;2022-12-31T03:04:17;7.33;;;3.50;;
19343;SDS011;9808;52.402;16.678;2022-12-31T03:07:14;10.90;;;4.23;;
19343;SDS011;9808;52.402;16.678;2022-12-31T03:09:43;8.83;;;4.07;;
19343;SDS011;9808;52.402;16.678;2022-12-31T03:12:11;9.53;;;3.90;;
19343;SDS011;9808;52.402;16.678;2022-12-31T03:14:57;11.20;;;4.07;;
19343;SDS011;9808;52.402;16.678;2022-12-31T03:17:25;8.40;;;4.03;;
19343;SDS011;9808;52.402;16.678;2022-12-31T03:19:53;9.03;;;3.87;;
19343;SDS011;9808;52.402;16.678;2022-12-31T03:22:41;9.17;;;3.73;;
19343;SDS011;9808;52.402;16.678;2022-12-31T03:27:55;8.20;;;3.33;;
19343;SDS011;9808;52.402;16.678;2022-12-31T03:30:22;6.90;;;3.50;;
19343;SDS011;9808;52.402;16.678;2022-12-31T03:32:50;8.43;;;3.70;;
19343;SDS011;9808;52.402;16.678;2022-12-31T03:35:18;8.93;;;3.87;;
19343;SDS011;9808;52.402;16.678;2022-12-31T03:37:46;9.57;;;3.87;;
19343;SDS011;9808;52.402;16.678;2022-12-31T03:40:14;8.47;;;3.53;;
19343;SDS011;9808;52.402;16.678;2022-12-31T03:42:41;6.67;;;3.23;;
19343;SDS011;9808;52.402;16.678;2022-12-31T03:45:09;7.80;;;3.60;;
19343;SDS011;9808;52.402;16.678;2022-12-31T03:47:37;11.73;;;3.73;;
19343;SDS011;9808;52.402;16.678;2022-12-31T03:50:04;7.43;;;3.33;;
19343;SDS011;9808;52.402;16.678;2022-12-31T03:52:32;6.90;;;2.77;;
19343;SDS011;9808;52.402;16.678;2022-12-31T03:54:59;6.13;;;3.10;;
19343;SDS011;9808;52.402;16.678;2022-12-31T03:57:27;6.83;;;3.20;;
19343;SDS011;9808;52.402;16.678;2022-12-31T03:59:55;7.33;;;3.63;;
19343;SDS011;9808;52.402;16.678;2022-12-31T04:02:22;7.33;;;3.50;;
19343;SDS011;9808;52.402;16.678;2022-12-31T04:04:54;7.57;;;3.33;;
19343;SDS011;9808;52.402;16.678;2022-12-31T04:07:21;6.30;;;3.07;;
19343;SDS011;9808;52.402;16.678;2022-12-31T04:09:49;6.30;;;2.63;;
19343;SDS011;9808;52.402;16.678;2022-12-31T04:12:16;6.00;;;3.10;;
19343;SDS011;9808;52.402;16.678;2022-12-31T04:14:43;7.00;;;3.10;;
19343;SDS011;9808;52.402;16.678;2022-12-31T04:17:10;7.17;;;2.90;;
19343;SDS011;9808;52.402;16.678;2022-12-31T04:19:37;8.13;;;3.30;;
19343;SDS011;9808;52.402;16.678;2022-12-31T04:22:06;6.20;;;2.90;;
19343;SDS011;9808;52.402;16.678;2022-12-31T04:24:33;9.10;;;3.27;;
19343;SDS011;9808;52.402;16.678;2022-12-31T04:27:00;6.97;;;2.87;;
19343;SDS011;9808;52.402;16.678;2022-12-31T04:29:33;7.50;;;3.40;;
19343;SDS011;9808;52.402;16.678;2022-12-31T04:32:00;7.17;;;3.27;;
19343;SDS011;9808;52.402;16.678;2022-12-31T04:34:28;7.77;;;3.23;;
19343;SDS011;9808;52.402;16.678;2022-12-31T04:36:55;8.67;;;3.17;;
19343;SDS011;9808;52.402;16.678;2022-12-31T04:39:23;8.17;;;3.30;;
19343;SDS011;9808;52.402;16.678;2022-12-31T04:41:50;8.10;;;2.80;;
19343;SDS011;9808;52.402;16.678;2022-12-31T04:44:18;6.83;;;3.20;;
19343;SDS011;9808;52.402;16.678;2022-12-31T04:46:45;7.13;;;3.17;;
19343;SDS011;9808;52.402;16.678;2022-12-31T04:49:12;7.77;;;3.47;;
19343;SDS011;9808;52.402;16.678;2022-12-31T04:51:40;8.00;;;2.90;;
19343;SDS011;9808;52.402;16.678;2022-12-31T04:54:07;6.47;;;2.70;;
19343;SDS011;9808;52.402;16.678;2022-12-31T04:56:34;8.03;;;3.47;;
19343;SDS011;9808;52.402;16.678;2022-12-31T04:59:02;7.20;;;3.37;;
19343;SDS011;9808;52.402;16.678;2022-12-31T05:01:30;8.10;;;3.20;;
19343;SDS011;9808;52.402;16.678;2022-12-31T05:03:58;7.23;;;3.03;;
19343;SDS011;9808;52.402;16.678;2022-12-31T05:06:25;7.97;;;3.20;;
19343;SDS011;9808;52.402;16.678;2022-12-31T05:08:52;7.03;;;3.00;;
19343;SDS011;9808;52.402;16.678;2022-12-31T05:11:20;7.00;;;3.07;;
19343;SDS011;9808;52.402;16.678;2022-12-31T05:13:47;11.03;;;3.30;;
19343;SDS011;9808;52.402;16.678;2022-12-31T05:16:14;7.13;;;2.93;;
19343;SDS011;9808;52.402;16.678;2022-12-31T05:18:42;7.27;;;3.13;;
19343;SDS011;9808;52.402;16.678;2022-12-31T05:21:09;7.30;;;3.30;;
19343;SDS011;9808;52.402;16.678;2022-12-31T05:23:38;7.53;;;3.17;;
19343;SDS011;9808;52.402;16.678;2022-12-31T05:26:06;6.17;;;2.73;;
19343;SDS011;9808;52.402;16.678;2022-12-31T05:28:33;6.63;;;3.10;;
19343;SDS011;9808;52.402;16.678;2022-12-31T05:31:00;6.73;;;2.70;;
19343;SDS011;9808;52.402;16.678;2022-12-31T05:33:27;6.67;;;2.63;;
19343;SDS011;9808;52.402;16.678;2022-12-31T05:35:54;6.50;;;3.03;;
19343;SDS011;9808;52.402;16.678;2022-12-31T05:38:24;7.30;;;3.17;;
19343;SDS011;9808;52.402;16.678;2022-12-31T05:40:58;7.20;;;3.20;;
19343;SDS011;9808;52.402;16.678;2022-12-31T05:43:25;7.40;;;3.27;;
19343;SDS011;9808;52.402;16.678;2022-12-31T05:45:53;8.57;;;3.80;;
19343;SDS011;9808;52.402;16.678;2022-12-31T05:48:20;9.13;;;3.97;;
19343;SDS011;9808;52.402;16.678;2022-12-31T05:50:48;7.73;;;3.47;;
19343;SDS011;9808;52.402;16.678;2022-12-31T05:53:15;7.77;;;3.50;;
19343;SDS011;9808;52.402;16.678;2022-12-31T05:55:43;7.03;;;3.13;;
19343;SDS011;9808;52.402;16.678;2022-12-31T05:58:11;7.40;;;3.30;;
19343;SDS011;9808;52.402;16.678;2022-12-31T06:00:38;6.40;;;2.73;;
19343;SDS011;9808;52.402;16.678;2022-12-31T06:03:06;6.80;;;3.40;;
19343;SDS011;9808;52.402;16.678;2022-12-31T06:05:33;7.20;;;3.40;;
19343;SDS011;9808;52.402;16.678;2022-12-31T06:08:00;7.57;;;3.43;;
19343;SDS011;9808;52.402;16.678;2022-12-31T06:10:27;7.63;;;3.33;;
19343;SDS011;9808;52.402;16.678;2022-12-31T06:12:54;14.33;;;5.90;;
19343;SDS011;9808;52.402;16.678;2022-12-31T06:15:22;8.60;;;4.13;;
19343;SDS011;9808;52.402;16.678;2022-12-31T06:17:49;6.90;;;3.27;;
19343;SDS011;9808;52.402;16.678;2022-12-31T06:20:16;8.53;;;3.60;;
19343;SDS011;9808;52.402;16.678;2022-12-31T06:22:43;9.10;;;3.33;;
19343;SDS011;9808;52.402;16.678;2022-12-31T06:25:10;11.33;;;4.00;;
19343;SDS011;9808;52.402;16.678;2022-12-31T06:27:38;7.50;;;3.57;;
19343;SDS011;9808;52.402;16.678;2022-12-31T06:30:05;8.67;;;4.03;;
19343;SDS011;9808;52.402;16.678;2022-12-31T06:32:33;8.67;;;4.00;;
19343;SDS011;9808;52.402;16.678;2022-12-31T06:35:00;9.00;;;4.00;;
19343;SDS011;9808;52.402;16.678;2022-12-31T06:37:27;7.63;;;3.97;;
19343;SDS011;9808;52.402;16.678;2022-12-31T06:39:54;8.73;;;3.60;;
19343;SDS011;9808;52.402;16.678;2022-12-31T06:42:22;8.03;;;4.00;;
19343;SDS011;9808;52.402;16.678;2022-12-31T06:44:49;7.37;;;3.77;;
19343;SDS011;9808;52.402;16.678;2022-12-31T06:47:16;9.07;;;4.17;;
19343;SDS011;9808;52.402;16.678;2022-12-31T06:49:43;7.90;;;4.00;;
19343;SDS011;9808;52.402;16.678;2022-12-31T06:52:10;10.93;;;4.13;;
19343;SDS011;9808;52.402;16.678;2022-12-31T06:54:37;11.63;;;4.50;;
19343;SDS011;9808;52.402;16.678;2022-12-31T06:57:05;9.63;;;3.70;;
19343;SDS011;9808;52.402;16.678;2022-12-31T06:59:32;8.17;;;3.83;;
19343;SDS011;9808;52.402;16.678;2022-12-31T07:07:07;7.43;;;3.80;;
19343;SDS011;9808;52.402;16.678;2022-12-31T07:10:13;8.50;;;4.07;;
19343;SDS011;9808;52.402;16.678;2022-12-31T07:15:08;7.40;;;4.00;;
19343;SDS011;9808;52.402;16.678;2022-12-31T07:17:44;7.97;;;3.67;;
19343;SDS011;9808;52.402;16.678;2022-12-31T07:20:16;10.37;;;3.77;;
19343;SDS011;9808;52.402;16.678;2022-12-31T07:22:45;8.13;;;3.90;;
19343;SDS011;9808;52.402;16.678;2022-12-31T07:25:13;8.00;;;3.90;;
19343;SDS011;9808;52.402;16.678;2022-12-31T07:30:20;7.23;;;3.40;;
19343;SDS011;9808;52.402;16.678;2022-12-31T07:38:19;6.83;;;3.30;;
19343;SDS011;9808;52.402;16.678;2022-12-31T07:43:29;7.07;;;3.20;;
19343;SDS011;9808;52.402;16.678;2022-12-31T07:46:12;7.17;;;3.60;;
19343;SDS011;9808;52.402;16.678;2022-12-31T07:48:41;6.87;;;3.47;;
19343;SDS011;9808;52.402;16.678;2022-12-31T07:51:08;6.63;;;3.17;;
19343;SDS011;9808;52.402;16.678;2022-12-31T07:53:36;5.27;;;2.67;;
19343;SDS011;9808;52.402;16.678;2022-12-31T07:56:04;6.33;;;2.67;;
19343;SDS011;9808;52.402;16.678;2022-12-31T07:58:45;7.63;;;3.23;;
19343;SDS011;9808;52.402;16.678;2022-12-31T08:01:14;7.13;;;2.93;;
19343;SDS011;9808;52.402;16.678;2022-12-31T08:03:54;6.30;;;3.40;;
19343;SDS011;9808;52.402;16.678;2022-12-31T08:09:25;7.90;;;2.77;;
19343;SDS011;9808;52.402;16.678;2022-12-31T08:11:57;6.90;;;3.20;;
19343;SDS011;9808;52.402;16.678;2022-12-31T08:14:25;7.50;;;2.77;;
19343;SDS011;9808;52.402;16.678;2022-12-31T08:16:52;5.37;;;2.47;;
19343;SDS011;9808;52.402;16.678;2022-12-31T08:22:28;5.77;;;3.10;;
19343;SDS011;9808;52.402;16.678;2022-12-31T08:30:03;10.23;;;3.93;;
19343;SDS011;9808;52.402;16.678;2022-12-31T08:32:40;5.63;;;2.70;;
19343;SDS011;9808;52.402;16.678;2022-12-31T08:35:15;7.37;;;3.47;;
19343;SDS011;9808;52.402;16.678;2022-12-31T08:50:04;6.20;;;3.13;;
19343;SDS011;9808;52.402;16.678;2022-12-31T08:52:32;8.53;;;4.43;;
19343;SDS011;9808;52.402;16.678;2022-12-31T08:54:59;8.33;;;3.80;;
19343;SDS011;9808;52.402;16.678;2022-12-31T09:05:16;7.23;;;3.40;;
19343;SDS011;9808;52.402;16.678;2022-12-31T09:07:48;8.43;;;3.43;;
19343;SDS011;9808;52.402;16.678;2022-12-31T09:10:20;6.67;;;3.20;;
19343;SDS011;9808;52.402;16.678;2022-12-31T09:12:56;4.67;;;2.60;;
19343;SDS011;9808;52.402;16.678;2022-12-31T09:18:07;6.47;;;3.33;;
19343;SDS011;9808;52.402;16.678;2022-12-31T09:20:34;11.63;;;3.10;;
19343;SDS011;9808;52.402;16.678;2022-12-31T09:23:10;5.87;;;2.90;;
19343;SDS011;9808;52.402;16.678;2022-12-31T09:25:41;8.70;;;3.53;;
19343;SDS011;9808;52.402;16.678;2022-12-31T09:28:17;6.33;;;3.00;;
19343;SDS011;9808;52.402;16.678;2022-12-31T09:30:49;5.47;;;2.70;;
19343;SDS011;9808;52.402;16.678;2022-12-31T09:35:49;8.90;;;3.80;;
19343;SDS011;9808;52.402;16.678;2022-12-31T09:38:20;10.87;;;4.80;;
19343;SDS011;9808;52.402;16.678;2022-12-31T09:41:00;9.87;;;5.00;;
19343;SDS011;9808;52.402;16.678;2022-12-31T09:54:18;6.70;;;3.53;;
19343;SDS011;9808;52.402;16.678;2022-12-31T10:02:02;6.00;;;3.00;;
19343;SDS011;9808;52.402;16.678;2022-12-31T10:07:23;8.77;;;4.18;;
19343;SDS011;9808;52.402;16.678;2022-12-31T10:12:26;8.27;;;3.60;;
19343;SDS011;9808;52.402;16.678;2022-12-31T10:30:33;10.80;;;5.43;;
19343;SDS011;9808;52.402;16.678;2022-12-31T10:38:30;10.82;;;4.95;;
19343;SDS011;9808;52.402;16.678;2022-12-31T10:52:07;8.50;;;3.10;;
19343;SDS011;9808;52.402;16.678;2022-12-31T11:12:20;6.28;;;2.78;;
19343;SDS011;9808;52.402;16.678;2022-12-31T11:14:54;8.27;;;2.88;;
19343;SDS011;9808;52.402;16.678;2022-12-31T11:20:00;6.32;;;2.50;;
19343;SDS011;9808;52.402;16.678;2022-12-31T11:28:21;5.30;;;1.95;;
19343;SDS011;9808;52.402;16.678;2022-12-31T11:33:09;4.18;;;1.80;;
19343;SDS011;9808;52.402;16.678;2022-12-31T11:38:14;4.72;;;2.17;;
19343;SDS011;9808;52.402;16.678;2022-12-31T11:43:25;4.43;;;1.85;;
19343;SDS011;9808;52.402;16.678;2022-12-31T11:58:44;4.68;;;1.55;;
19343;SDS011;9808;52.402;16.678;2022-12-31T12:01:21;5.53;;;1.83;;
19343;SDS011;9808;52.402;16.678;2022-12-31T12:03:50;4.30;;;1.50;;
19343;SDS011;9808;52.402;16.678;2022-12-31T12:06:19;3.47;;;1.58;;
19343;SDS011;9808;52.402;16.678;2022-12-31T12:08:54;5.82;;;2.08;;
19343;SDS011;9808;52.402;16.678;2022-12-31T12:11:23;4.65;;;1.70;;
19343;SDS011;9808;52.402;16.678;2022-12-31T12:13:51;6.43;;;2.10;;
19343;SDS011;9808;52.402;16.678;2022-12-31T12:16:19;6.35;;;1.95;;
19343;SDS011;9808;52.402;16.678;2022-12-31T12:18:48;3.20;;;1.55;;
19343;SDS011;9808;52.402;16.678;2022-12-31T12:21:16;3.58;;;1.45;;
19343;SDS011;9808;52.402;16.678;2022-12-31T12:24:01;7.20;;;2.05;;
19343;SDS011;9808;52.402;16.678;2022-12-31T12:29:10;4.95;;;1.95;;
19343;SDS011;9808;52.402;16.678;2022-12-31T12:31:37;4.30;;;1.80;;
19343;SDS011;9808;52.402;16.678;2022-12-31T12:34:05;3.47;;;1.65;;
19343;SDS011;9808;52.402;16.678;2022-12-31T12:36:49;4.75;;;1.75;;
19343;SDS011;9808;52.402;16.678;2022-12-31T12:39:33;6.10;;;1.65;;
19343;SDS011;9808;52.402;16.678;2022-12-31T12:42:06;2.83;;;1.30;;
19343;SDS011;9808;52.402;16.678;2022-12-31T12:44:33;4.07;;;1.52;;
19343;SDS011;9808;52.402;16.678;2022-12-31T12:47:04;3.63;;;1.50;;
19343;SDS011;9808;52.402;16.678;2022-12-31T12:49:38;3.65;;;1.60;;
19343;SDS011;9808;52.402;16.678;2022-12-31T12:55:04;6.40;;;1.40;;
19343;SDS011;9808;52.402;16.678;2022-12-31T13:00:32;3.25;;;1.45;;
19343;SDS011;9808;52.402;16.678;2022-12-31T13:08:29;5.13;;;1.58;;
19343;SDS011;9808;52.402;16.678;2022-12-31T13:16:14;4.80;;;1.90;;
19343;SDS011;9808;52.402;16.678;2022-12-31T13:21:29;4.88;;;1.75;;
19343;SDS011;9808;52.402;16.678;2022-12-31T13:26:31;4.25;;;1.60;;
19343;SDS011;9808;52.402;16.678;2022-12-31T13:29:00;5.68;;;2.05;;
19343;SDS011;9808;52.402;16.678;2022-12-31T13:31:30;6.15;;;1.70;;
19343;SDS011;9808;52.402;16.678;2022-12-31T13:34:06;4.05;;;1.90;;
19343;SDS011;9808;52.402;16.678;2022-12-31T13:36:37;3.97;;;2.00;;
19343;SDS011;9808;52.402;16.678;2022-12-31T13:39:14;7.55;;;2.50;;
19343;SDS011;9808;52.402;16.678;2022-12-31T13:41:47;13.32;;;7.25;;
19343;SDS011;9808;52.402;16.678;2022-12-31T13:47:26;4.40;;;1.90;;
19343;SDS011;9808;52.402;16.678;2022-12-31T13:49:56;5.13;;;1.83;;
19343;SDS011;9808;52.402;16.678;2022-12-31T13:57:35;5.43;;;2.10;;
19343;SDS011;9808;52.402;16.678;2022-12-31T14:00:51;5.10;;;2.08;;
19343;SDS011;9808;52.402;16.678;2022-12-31T14:05:29;5.10;;;2.05;;
19343;SDS011;9808;52.402;16.678;2022-12-31T14:07:59;4.95;;;2.05;;
19343;SDS011;9808;52.402;16.678;2022-12-31T14:10:29;9.02;;;2.13;;
19343;SDS011;9808;52.402;16.678;2022-12-31T14:13:05;4.40;;;1.80;;
19343;SDS011;9808;52.402;16.678;2022-12-31T14:15:58;4.78;;;1.90;;
19343;SDS011;9808;52.402;16.678;2022-12-31T14:18:34;8.93;;;1.95;;
19343;SDS011;9808;52.402;16.678;2022-12-31T14:23:51;4.32;;;2.20;;
19343;SDS011;9808;52.402;16.678;2022-12-31T14:26:23;4.13;;;1.92;;
19343;SDS011;9808;52.402;16.678;2022-12-31T14:50:33;5.68;;;2.28;;
19343;SDS011;9808;52.402;16.678;2022-12-31T14:55:33;5.18;;;2.15;;
19343;SDS011;9808;52.402;16.678;2022-12-31T14:58:02;5.90;;;2.20;;
19343;SDS011;9808;52.402;16.678;2022-12-31T15:00:50;5.55;;;2.17;;
19343;SDS011;9808;52.402;16.678;2022-12-31T15:14:19;6.57;;;2.30;;
19343;SDS011;9808;52.402;16.678;2022-12-31T15:24:25;11.63;;;3.38;;
19343;SDS011;9808;52.402;16.678;2022-12-31T15:26:54;5.95;;;2.78;;
19343;SDS011;9808;52.402;16.678;2022-12-31T15:31:51;8.18;;;3.13;;
19343;SDS011;9808;52.402;16.678;2022-12-31T15:34:37;7.40;;;3.10;;
19343;SDS011;9808;52.402;16.678;2022-12-31T15:37:05;10.07;;;5.10;;
19343;SDS011;9808;52.402;16.678;2022-12-31T15:42:00;9.07;;;4.50;;
19343;SDS011;9808;52.402;16.678;2022-12-31T15:44:48;7.28;;;3.45;;
19343;SDS011;9808;52.402;16.678;2022-12-31T15:47:18;11.20;;;6.13;;
19343;SDS011;9808;52.402;16.678;2022-12-31T15:49:50;10.07;;;4.70;;
19343;SDS011;9808;52.402;16.678;2022-12-31T15:52:19;7.75;;;3.60;;
19343;SDS011;9808;52.402;16.678;2022-12-31T15:54:49;8.05;;;3.00;;
19343;SDS011;9808;52.402;16.678;2022-12-31T15:57:18;7.60;;;3.30;;
19343;SDS011;9808;52.402;16.678;2022-12-31T15:59:46;8.95;;;3.50;;
19343;SDS011;9808;52.402;16.678;2022-12-31T16:02:18;7.15;;;3.17;;
19343;SDS011;9808;52.402;16.678;2022-12-31T16:04:46;8.43;;;3.22;;
19343;SDS011;9808;52.402;16.678;2022-12-31T16:07:14;7.32;;;3.00;;
19343;SDS011;9808;52.402;16.678;2022-12-31T16:09:45;8.57;;;3.17;;
19343;SDS011;9808;52.402;16.678;2022-12-31T16:12:18;7.38;;;2.72;;
19343;SDS011;9808;52.402;16.678;2022-12-31T16:14:50;6.05;;;2.47;;
19343;SDS011;9808;52.402;16.678;2022-12-31T16:17:24;8.13;;;3.30;;
19343;SDS011;9808;52.402;16.678;2022-12-31T16:19:52;7.85;;;3.13;;
19343;SDS011;9808;52.402;16.678;2022-12-31T16:22:27;13.95;;;4.30;;
19343;SDS011;9808;52.402;16.678;2022-12-31T16:24:55;10.15;;;3.50;;
19343;SDS011;9808;52.402;16.678;2022-12-31T16:27:42;6.68;;;2.75;;
19343;SDS011;9808;52.402;16.678;2022-12-31T16:30:26;7.15;;;3.40;;
19343;SDS011;9808;52.402;16.678;2022-12-31T16:33:01;10.05;;;3.17;;
19343;SDS011;9808;52.402;16.678;2022-12-31T16:35:29;6.97;;;3.00;;
19343;SDS011;9808;52.402;16.678;2022-12-31T16:40:33;6.15;;;2.88;;
19343;SDS011;9808;52.402;16.678;2022-12-31T16:43:01;6.88;;;2.95;;
19343;SDS011;9808;52.402;16.678;2022-12-31T16:45:29;8.27;;;3.13;;
19343;SDS011;9808;52.402;16.678;2022-12-31T16:48:05;8.73;;;3.60;;
19343;SDS011;9808;52.402;16.678;2022-12-31T16:50:45;7.10;;;2.90;;
19343;SDS011;9808;52.402;16.678;2022-12-31T16:53:13;8.32;;;3.25;;
19343;SDS011;9808;52.402;16.678;2022-12-31T16:55:43;8.43;;;2.63;;
19343;SDS011;9808;52.402;16.678;2022-12-31T16:58:18;6.03;;;2.58;;
19343;SDS011;9808;52.402;16.678;2022-12-31T17:00:47;6.90;;;2.60;;
19343;SDS011;9808;52.402;16.678;2022-12-31T17:11:15;5.75;;;2.33;;
19343;SDS011;9808;52.402;16.678;2022-12-31T17:13:53;6.85;;;2.70;;
19343;SDS011;9808;52.402;16.678;2022-12-31T17:16:20;6.07;;;2.78;;
19343;SDS011;9808;52.402;16.678;2022-12-31T17:18:48;8.23;;;3.50;;
19343;SDS011;9808;52.402;16.678;2022-12-31T17:21:15;9.75;;;3.55;;
19343;SDS011;9808;52.402;16.678;2022-12-31T17:23:43;6.60;;;3.10;;
19343;SDS011;9808;52.402;16.678;2022-12-31T17:26:21;8.18;;;3.17;;
19343;SDS011;9808;52.402;16.678;2022-12-31T17:28:49;9.68;;;2.97;;
19343;SDS011;9808;52.402;16.678;2022-12-31T17:34:09;7.80;;;3.55;;
19343;SDS011;9808;52.402;16.678;2022-12-31T17:36:57;11.48;;;3.58;;
19343;SDS011;9808;52.402;16.678;2022-12-31T17:39:25;8.52;;;3.40;;
19343;SDS011;9808;52.402;16.678;2022-12-31T17:41:54;7.95;;;3.42;;
19343;SDS011;9808;52.402;16.678;2022-12-31T17:44:22;8.30;;;3.30;;
19343;SDS011;9808;52.402;16.678;2022-12-31T17:46:51;9.35;;;3.35;;
19343;SDS011;9808;52.402;16.678;2022-12-31T17:49:21;9.38;;;3.72;;
19343;SDS011;9808;52.402;16.678;2022-12-31T17:51:52;7.50;;;3.28;;
19343;SDS011;9808;52.402;16.678;2022-12-31T17:54:19;9.77;;;3.25;;
19343;SDS011;9808;52.402;16.678;2022-12-31T17:56:46;10.23;;;3.47;;
19343;SDS011;9808;52.402;16.678;2022-12-31T17:59:17;9.35;;;3.13;;
19343;SDS011;9808;52.402;16.678;2022-12-31T18:01:46;9.77;;;3.67;;
19343;SDS011;9808;52.402;16.678;2022-12-31T18:04:15;9.05;;;3.33;;
19343;SDS011;9808;52.402;16.678;2022-12-31T18:06:42;7.47;;;3.30;;
19343;SDS011;9808;52.402;16.678;2022-12-31T18:09:10;8.77;;;3.60;;
19343;SDS011;9808;52.402;16.678;2022-12-31T18:11:37;7.03;;;2.88;;
19343;SDS011;9808;52.402;16.678;2022-12-31T18:14:06;9.90;;;4.57;;
19343;SDS011;9808;52.402;16.678;2022-12-31T18:16:33;11.68;;;5.82;;
19343;SDS011;9808;52.402;16.678;2022-12-31T18:19:01;10.93;;;5.80;;
19343;SDS011;9808;52.402;16.678;2022-12-31T18:21:29;16.77;;;6.70;;
19343;SDS011;9808;52.402;16.678;2022-12-31T18:23:58;18.33;;;7.95;;
19343;SDS011;9808;52.402;16.678;2022-12-31T18:26:24;14.68;;;7.00;;
19343;SDS011;9808;52.402;16.678;2022-12-31T18:28:52;10.35;;;4.63;;
19343;SDS011;9808;52.402;16.678;2022-12-31T18:31:37;9.23;;;4.65;;
19343;SDS011;9808;52.402;16.678;2022-12-31T18:34:04;7.38;;;3.70;;
19343;SDS011;9808;52.402;16.678;2022-12-31T18:36:33;9.80;;;3.78;;
19343;SDS011;9808;52.402;16.678;2022-12-31T18:39:01;9.20;;;4.00;;
19343;SDS011;9808;52.402;16.678;2022-12-31T18:41:42;9.13;;;3.78;;
19343;SDS011;9808;52.402;16.678;2022-12-31T18:44:11;10.05;;;3.22;;
19343;SDS011;9808;52.402;16.678;2022-12-31T18:46:39;5.93;;;2.83;;
19343;SDS011;9808;52.402;16.678;2022-12-31T18:49:06;8.52;;;3.63;;
19343;SDS011;9808;52.402;16.678;2022-12-31T18:51:34;6.93;;;3.15;;
19343;SDS011;9808;52.402;16.678;2022-12-31T18:54:01;5.75;;;2.45;;
19343;SDS011;9808;52.402;16.678;2022-12-31T18:56:29;9.20;;;2.92;;
19343;SDS011;9808;52.402;16.678;2022-12-31T18:58:57;7.45;;;3.00;;
19343;SDS011;9808;52.402;16.678;2022-12-31T19:01:26;8.60;;;3.08;;
19343;SDS011;9808;52.402;16.678;2022-12-31T19:03:57;6.45;;;3.00;;
19343;SDS011;9808;52.402;16.678;2022-12-31T19:06:25;5.82;;;2.58;;
19343;SDS011;9808;52.402;16.678;2022-12-31T19:08:53;8.05;;;2.83;;
19343;SDS011;9808;52.402;16.678;2022-12-31T19:11:20;7.45;;;3.05;;
19343;SDS011;9808;52.402;16.678;2022-12-31T19:13:48;8.40;;;2.92;;
19343;SDS011;9808;52.402;16.678;2022-12-31T19:16:16;7.70;;;2.60;;
19343;SDS011;9808;52.402;16.678;2022-12-31T19:18:43;7.05;;;2.83;;
19343;SDS011;9808;52.402;16.678;2022-12-31T19:21:17;8.02;;;3.15;;
19343;SDS011;9808;52.402;16.678;2022-12-31T19:23:44;7.47;;;3.28;;
19343;SDS011;9808;52.402;16.678;2022-12-31T19:26:16;7.65;;;2.78;;
19343;SDS011;9808;52.402;16.678;2022-12-31T19:28:44;7.05;;;2.80;;
19343;SDS011;9808;52.402;16.678;2022-12-31T19:31:11;7.28;;;2.75;;
19343;SDS011;9808;52.402;16.678;2022-12-31T19:33:39;6.88;;;2.85;;
19343;SDS011;9808;52.402;16.678;2022-12-31T19:36:24;7.53;;;2.70;;
19343;SDS011;9808;52.402;16.678;2022-12-31T19:38:51;8.20;;;3.00;;
19343;SDS011;9808;52.402;16.678;2022-12-31T19:41:19;6.22;;;2.58;;